Bluffton, Georgia
Current Conditions -  °F | °C
As of 11:55 PM on Sunday 21 Dec 2014 (Local Time) from KBIJ Reporting Station
Haze Haze  
Wind Chill: 54°   Ceiling: 300
Heat Index: 54°   Visibility: 1.7mi
Dew Point: 52°   Wind: 3mph
Humidity: 94%   Direction: 70°ENE
Pressure: 30.04"   Gusts: NA
Location:  31.52°N, 84.87°W
Report Text: KBIJ 220455Z AUTO 07003KT 1 3/4SM BR OVC003 12/11 A3004 RMK AO2
Loading
Personal Weather Stations






























Interactive Weather Map New forecast layout! Learn more

10-Day Weather Forecast

Advertisements
Track Severe Weather on mobile